Time;durP1;ratioP1;P1;durP2;ratioP2;P2;SDS_P1;SDS_P2;PMS_P1;PMS_P2;Temp;Humidity;BMP_temperature;BMP_pressure;BME280_temperature;BME280_humidity;BME280_pressure;Samples;Min_cycle;Max_cycle;Signal;HPM_P1;HPM_P2
2023/03/30 05:03:07;;;;;;;;;0.00;0.00;;;;;16.34;59.67;3801.91;4919141;28;46997;-94
2023/03/30 05:05:35;;;;;;;;;0.00;0.00;;;;;15.85;59.32;3460.75;4919873;28;46546;-95
2023/03/30 05:08:08;;;;;;;;;1.00;0.00;;;;;16.01;59.91;2119.66;4918781;28;45309;-94
2023/03/30 05:11:08;;;;;;;;;0.00;0.00;;;;;14.93;59.61;2445.53;4918071;28;45488;-92
2023/03/30 05:13:34;;;;;;;;;0.67;0.67;;;;;15.25;59.87;2448.41;4842160;29;47292;-87
2023/03/30 05:15:59;;;;;;;;;0.00;0.00;;;;;16.02;59.91;1784.06;4847868;29;45785;-89
2023/03/30 05:18:25;;;;;;;;;0.00;0.00;;;;;16.19;59.65;2121.19;4845925;29;45745;-89
2023/03/30 05:20:50;;;;;;;;;0.00;0.00;;;;;16.33;59.87;1786.56;4844760;29;46094;-94
2023/03/30 05:23:15;;;;;;;;;0.00;0.00;;;;;16.13;60.19;1449.28;4838999;29;45619;-90
2023/03/30 05:25:45;;;;;;;;;0.67;0.00;;;;;16.28;59.74;1786.16;4840448;29;46215;-88
2023/03/30 05:28:11;;;;;;;;;0.00;0.00;;;;;16.34;59.71;2122.41;4852109;29;45700;-88
2023/03/30 05:30:36;;;;;;;;;0.00;0.00;;;;;16.33;60.05;1786.56;4853216;29;45504;-92
2023/03/30 05:33:02;;;;;;;;;0.00;0.00;;;;;16.23;60.14;1114.34;4850805;29;46391;-90
2023/03/30 05:35:27;;;;;;;;;0.00;0.00;;;;;16.13;59.93;106.91;4857167;29;47265;-91
2023/03/30 05:37:54;;;;;;;;;0.00;0.00;;;;;16.11;60.19;-228.69;4858379;29;45684;-92
2023/03/30 05:40:19;;;;;;;;;0.00;0.00;;;;;16.32;60.68;-1234.41;4850114;29;45733;-88
2023/03/30 05:42:44;;;;;;;;;0.00;0.00;;;;;16.29;60.42;-563.41;4851515;29;45661;-88
2023/03/30 05:45:10;;;;;;;;;0.00;0.00;;;;;16.02;60.48;-564.53;4845897;29;47196;-89
2023/03/30 05:47:35;;;;;;;;;0.00;0.00;;;;;16.12;60.48;-1235.00;4846422;29;45478;-89
2023/03/30 05:50:01;;;;;;;;;0.00;0.00;;;;;16.22;60.75;-1234.72;4910431;28;45414;-88
2023/03/30 05:52:27;;;;;;;;;0.00;0.00;;;;;16.10;60.16;-228.75;4922579;28;45488;-90
2023/03/30 05:54:53;;;;;;;;;0.00;0.00;;;;;15.88;60.41;-229.78;4922094;28;46300;-88
2023/03/30 05:57:18;;;;;;;;;0.00;0.00;;;;;16.20;60.42;-899.28;4930285;28;45782;-87
2023/03/30 05:59:43;;;;;;;;;0.00;0.00;;;;;15.95;60.82;-2241.41;4924062;28;45435;-89
2023/03/30 06:02:11;;;;;;;;;0.00;0.00;;;;;16.20;60.78;-1905.63;4923930;28;45544;-88
2023/03/30 06:04:38;;;;;;;;;0.00;0.00;;;;;15.93;60.77;-2241.44;4924595;28;46485;-87
2023/03/30 06:07:06;;;;;;;;;0.00;0.00;;;;;15.76;60.62;-2241.69;4926451;28;45474;-90
2023/03/30 06:09:32;;;;;;;;;2.00;1.00;;;;;15.65;61.65;-3916.88;4929476;28;45464;-93
2023/03/30 06:11:59;;;;;;;;;0.00;0.00;;;;;16.01;60.77;-2911.78;4930527;28;45429;-91
2023/03/30 06:15:02;;;;;;;;;0.00;0.00;;;;;16.15;60.78;-2911.69;4927981;28;45799;-95
2023/03/30 06:17:28;;;;;;;;;0.00;0.00;;;;;16.13;61.03;-3582.19;4929971;28;45553;-88
2023/03/30 06:19:54;;;;;;;;;0.00;0.00;;;;;15.63;61.06;-3246.94;4927436;28;45441;-88
2023/03/30 06:22:20;;;;;;;;;1.67;0.00;;;;;14.56;60.64;-3246.88;4928320;28;45499;-91
2023/03/30 06:24:51;;;;;;;;;2.33;0.00;;;;;14.48;61.01;-3246.88;4925600;28;46221;-89
2023/03/30 06:27:32;;;;;;;;;0.00;0.00;;;;;15.67;60.80;-3581.94;4919072;28;45575;-89
2023/03/30 06:30:00;;;;;;;;;0.00;0.00;;;;;14.54;60.96;-3915.59;4923084;28;45328;-85
2023/03/30 06:32:26;;;;;;;;;0.00;0.00;;;;;16.21;61.08;-3917.47;4922032;28;45584;-85
2023/03/30 06:34:52;;;;;;;;;0.00;0.00;;;;;15.82;61.14;-4587.03;4922264;28;46603;-83
2023/03/30 06:37:18;;;;;;;;;0.00;0.00;;;;;16.22;61.09;-4587.91;4910464;28;45442;-83
2023/03/30 06:39:47;;;;;;;;;2.00;0.33;;;;;15.98;61.32;-4252.31;4918540;28;45509;-85
2023/03/30 06:42:12;;;;;;;;;0.00;0.00;;;;;16.18;61.25;-4587.81;4923398;28;45295;-84
2023/03/30 06:44:38;;;;;;;;;0.00;0.00;;;;;15.95;60.88;-4587.31;4919359;28;46187;-85
2023/03/30 06:47:04;;;;;;;;;1.67;0.00;;;;;15.25;61.35;-4251.09;4919494;28;45501;-85
2023/03/30 06:49:33;;;;;;;;;1.33;0.00;;;;;15.43;61.22;-4920.91;4921030;28;45492;-84
2023/03/30 06:51:59;;;;;;;;;1.00;0.00;;;;;15.28;60.77;-4585.84;4919995;28;45495;-85
2023/03/30 06:54:24;;;;;;;;;0.00;0.00;;;;;16.02;60.83;-4252.38;4917821;28;45472;-86
2023/03/30 06:56:51;;;;;;;;;0.00;0.00;;;;;15.35;61.39;-4586.00;4935547;28;45509;-82
2023/03/30 06:59:17;;;;;;;;;0.00;0.00;;;;;15.62;60.68;-4251.72;4919292;28;45418;-83
2023/03/30 07:01:43;;;;;;;;;1.00;0.00;;;;;15.48;60.85;-4251.50;4919476;28;45627;-83
2023/03/30 07:04:08;;;;;;;;;0.00;0.00;;;;;15.95;60.71;-4587.31;4920045;28;45549;-84
2023/03/30 07:06:34;;;;;;;;;0.33;0.33;;;;;15.66;60.97;-4586.69;4919266;28;46106;-85
2023/03/30 07:08:59;;;;;;;;;1.33;0.00;;;;;16.26;61.26;-4923.16;4917151;28;45564;-84
2023/03/30 07:11:25;;;;;;;;;1.00;0.00;;;;;16.28;61.09;-4588.03;4917891;28;45737;-86
2023/03/30 07:13:50;;;;;;;;;0.00;0.00;;;;;15.79;60.86;-4586.97;4903686;28;46976;-84
2023/03/30 07:16:16;;;;;;;;;0.33;0.00;;;;;16.32;60.87;-4588.09;4904262;28;45464;-84
2023/03/30 07:18:41;;;;;;;;;0.00;0.00;;;;;16.18;60.87;-4922.97;4921026;28;45475;-84
2023/03/30 07:21:07;;;;;;;;;0.00;0.00;;;;;16.33;60.91;-4923.38;4920422;28;45553;-84
2023/03/30 07:23:32;;;;;;;;;0.00;0.00;;;;;16.35;61.32;-5258.63;4920618;28;45416;-82
2023/03/30 07:25:58;;;;;;;;;0.33;0.33;;;;;16.23;61.56;-5928.41;4920625;28;45432;-82
2023/03/30 07:28:23;;;;;;;;;1.00;0.00;;;;;16.38;61.49;-5929.03;4920698;28;45335;-83
2023/03/30 07:30:49;;;;;;;;;0.33;0.00;;;;;16.40;61.40;-5929.13;4920714;28;45543;-82
2023/03/30 07:33:14;;;;;;;;;0.00;0.00;;;;;16.40;61.40;-6264.28;4920208;28;45453;-82
2023/03/30 07:35:44;;;;;;;;;0.00;0.00;;;;;16.31;61.07;-5928.72;4920483;28;45780;-82
2023/03/30 07:38:10;;;;;;;;;1.33;0.00;;;;;16.44;61.47;-6264.47;4918186;28;45378;-83
2023/03/30 07:40:35;;;;;;;;;1.00;0.00;;;;;16.46;61.36;-6599.72;4917945;28;45441;-82
2023/03/30 07:43:00;;;;;;;;;0.00;0.00;;;;;16.49;61.33;-6599.88;4920025;28;51653;-81
2023/03/30 07:45:26;;;;;;;;;1.00;1.00;;;;;16.50;61.09;-6599.94;4920654;28;45477;-81
2023/03/30 07:47:51;;;;;;;;;1.00;1.00;;;;;16.36;60.78;-6599.19;4920505;28;45439;-82
2023/03/30 07:50:16;;;;;;;;;0.00;0.00;;;;;16.55;61.20;-6264.97;4920882;28;45613;-81
2023/03/30 07:52:42;;;;;;;;;0.00;0.00;;;;;16.57;61.29;-6600.31;4920424;28;46262;-83
2023/03/30 07:55:07;;;;;;;;;0.00;0.00;;;;;16.34;60.94;-6599.06;4920259;28;45391;-82
2023/03/30 07:57:33;;;;;;;;;1.33;0.00;;;;;16.50;60.79;-6264.75;4919197;28;45339;-82
2023/03/30 07:59:58;;;;;;;;;0.67;0.00;;;;;16.69;60.88;-6265.69;4920125;28;45649;-81
2023/03/30 08:02:23;;;;;;;;;0.33;0.33;;;;;16.64;60.85;-6265.44;4919748;28;46215;-82
2023/03/30 08:04:49;;;;;;;;;0.00;0.00;;;;;16.79;60.15;-5595.44;4918160;28;45338;-81
2023/03/30 08:07:15;;;;;;;;;0.00;0.00;;;;;16.81;60.28;-4924.66;4923660;28;45691;-81
2023/03/30 08:09:40;;;;;;;;;0.00;0.00;;;;;16.82;60.14;-4589.19;4940003;28;45427;-82
2023/03/30 08:12:06;;;;;;;;;0.00;0.00;;;;;16.85;59.93;-4589.25;4914294;28;45624;-81
2023/03/30 08:14:31;;;;;;;;;1.00;0.00;;;;;16.66;59.62;-3917.97;4916331;28;45442;-82
2023/03/30 08:16:57;;;;;;;;;0.00;0.00;;;;;16.86;59.33;-3918.19;4934333;28;45762;-81
2023/03/30 08:19:23;;;;;;;;;0.00;0.00;;;;;16.77;59.41;-3918.09;4920867;28;45563;-81
2023/03/30 08:21:49;;;;;;;;;1.67;0.00;;;;;16.73;59.23;-3918.06;4915746;28;47265;-82
2023/03/30 08:24:15;;;;;;;;;0.00;0.00;;;;;16.99;59.23;-3918.31;4921195;28;45491;-82
2023/03/30 08:26:41;;;;;;;;;0.00;0.00;;;;;16.86;59.18;-3918.19;4939282;28;45432;-81
2023/03/30 08:29:07;;;;;;;;;0.00;0.00;;;;;17.11;59.05;-3582.72;4930595;28;45472;-82
2023/03/30 08:31:33;;;;;;;;;3.00;0.00;;;;;17.21;58.66;-3246.97;4920030;28;47209;-82
2023/03/30 08:33:59;;;;;;;;;0.00;0.00;;;;;17.21;57.82;-2575.28;4919985;28;45243;-82
2023/03/30 08:36:25;;;;;;;;;0.67;0.00;;;;;17.30;57.71;-1903.25;4919423;28;45390;-82
2023/03/30 08:38:53;;;;;;;;;3.33;1.00;;;;;17.18;57.02;-559.59;4920754;28;45380;-82
2023/03/30 08:41:48;;;;;;;;;0.00;0.00;;;;;17.33;57.29;-222.81;4928899;28;46191;-82
2023/03/30 08:44:25;;;;;;;;;0.00;0.00;;;;;17.35;56.87;1122.13;4939166;28;45486;-81
2023/03/30 08:46:50;;;;;;;;;0.00;0.00;;;;;17.07;57.16;1120.19;4921941;28;45414;-81
2023/03/30 08:49:19;;;;;;;;;1.00;1.00;;;;;17.28;57.16;1121.66;4939127;28;45468;-81
2023/03/30 08:51:49;;;;;;;;;0.00;0.00;;;;;17.15;57.31;1120.72;4930447;28;45418;-82
2023/03/30 08:54:17;;;;;;;;;0.00;0.00;;;;;17.33;56.87;785.78;4919943;28;45396;-81
2023/03/30 08:56:58;;;;;;;;;0.00;0.00;;;;;17.33;57.47;1122.03;4919964;28;45401;-82
2023/03/30 09:00:03;;;;;;;;;0.00;0.00;;;;;17.37;57.55;786.00;4920354;28;45513;-82
2023/03/30 09:02:36;;;;;;;;;0.00;0.00;;;;;17.39;56.90;786.13;4906673;28;46158;-82
2023/03/30 09:05:14;;;;;;;;;1.00;0.00;;;;;17.24;57.31;449.03;4918155;28;45312;-82
2023/03/30 09:08:00;;;;;;;;;0.00;0.00;;;;;17.31;57.79;-895.13;4918694;28;45348;-85
2023/03/30 09:10:30;;;;;;;;;0.00;0.00;;;;;17.36;58.66;-1567.09;4919396;28;45457;-85
2023/03/30 09:12:59;;;;;;;;;0.00;0.00;;;;;17.34;58.04;-1567.16;4912644;28;46390;-86
2023/03/30 09:15:44;;;;;;;;;0.67;0.67;;;;;17.36;58.61;-1903.13;4914393;28;45487;-84
2023/03/30 09:18:19;;;;;;;;;1.00;1.00;;;;;17.09;58.33;-1903.69;4918365;28;45532;-84
2023/03/30 09:20:49;;;;;;;;;0.00;0.00;;;;;16.40;58.14;-1234.13;4919334;28;45469;-84
2023/03/30 09:23:18;;;;;;;;;0.00;0.00;;;;;16.46;57.72;-898.31;4927780;28;46924;-85
2023/03/30 09:25:52;;;;;;;;;0.00;0.00;;;;;17.45;57.37;-222.22;4918172;28;45527;-84
2023/03/30 09:28:26;;;;;;;;;0.00;0.00;;;;;16.45;57.29;108.66;4918486;28;45379;-85
2023/03/30 09:31:01;;;;;;;;;0.00;0.00;;;;;17.46;57.35;450.34;4913796;28;45613;-85
2023/03/30 09:33:45;;;;;;;;;0.00;0.00;;;;;17.48;57.72;114.19;4917973;28;45518;-85
2023/03/30 09:36:32;;;;;;;;;0.00;0.00;;;;;17.48;57.23;786.72;4919101;28;45594;-85
2023/03/30 09:39:00;;;;;;;;;0.00;0.00;;;;;16.50;57.02;780.44;4919482;28;45504;-94
2023/03/30 09:42:08;;;;;;;;;0.00;0.00;;;;;16.96;57.31;783.41;4924797;28;45474;-95
2023/03/30 09:44:52;;;;;;;;;0.00;0.00;;;;;17.63;56.72;787.69;4911254;28;47244;-95
2023/03/30 09:47:27;;;;;;;;;0.00;0.00;;;;;16.65;56.84;781.38;4920041;28;45529;-91
2023/03/30 09:50:31;;;;;;;;;0.67;0.00;;;;;17.64;57.22;787.75;4924676;28;45518;-96
2023/03/30 09:53:00;;;;;;;;;2.67;1.00;;;;;17.64;56.72;787.75;4921728;28;45339;-90
2023/03/30 09:55:31;;;;;;;;;0.00;0.00;;;;;17.27;56.85;785.41;4920198;28;45337;-95
2023/03/30 09:58:25;;;;;;;;;0.00;0.00;;;;;17.57;56.73;450.94;4917954;28;45519;-89
2023/03/30 10:16:51;;;;;;;;;0.33;0.33;;;;;18.30;55.76;1802.50;5443011;23;45491;-95
2023/03/30 10:19:21;;;;;;;;;0.00;0.00;;;;;18.10;55.73;1800.84;5020647;28;47521;-96
2023/03/30 10:21:51;;;;;;;;;1.00;0.00;;;;;17.85;55.25;2808.75;5019821;28;45335;-93
2023/03/30 10:25:04;;;;;;;;;0.00;0.00;;;;;17.21;54.14;3811.78;5001275;28;45563;-94
2023/03/30 10:28:03;;;;;;;;;0.67;0.00;;;;;17.56;53.35;5835.91;5014474;28;45502;-93
2023/03/30 10:30:30;;;;;;;;;0.00;0.00;;;;;18.01;53.54;5842.47;4942616;28;45755;-95
2023/03/30 10:32:59;;;;;;;;;0.67;0.67;;;;;18.33;52.81;7196.38;4948983;28;45345;-96
2023/03/30 10:35:31;;;;;;;;;0.00;0.00;;;;;18.42;52.86;6523.03;4929783;28;45510;-96
2023/03/30 10:38:12;;;;;;;;;2.00;1.00;;;;;18.64;51.95;5177.03;4944719;28;45447;-94
2023/03/30 10:40:40;;;;;;;;;0.00;0.00;;;;;20.70;51.11;4866.50;4930201;28;47074;-95
2023/03/30 10:43:13;;;;;;;;;2.00;0.00;;;;;20.82;49.27;8593.06;4948567;28;45379;-96
2023/03/30 10:45:45;;;;;;;;;2.00;0.00;;;;;22.22;47.77;13716.47;4928177;28;45362;-95
2023/03/30 10:48:17;;;;;;;;;0.00;0.00;;;;;23.13;47.42;15103.53;4945730;28;45366;-94
2023/03/30 10:50:48;;;;;;;;;0.00;0.00;;;;;23.55;46.96;17502.53;4927756;28;47047;-92
2023/03/30 10:53:49;;;;;;;;;0.00;0.00;;;;;23.41;44.42;32604.41;4923307;28;45468;-94
2023/03/30 10:56:36;;;;;;;;;2.00;0.00;;;;;23.60;45.15;32853.69;4921511;28;45694;-91
2023/03/30 10:59:17;;;;;;;;;1.50;0.00;;;;;23.48;45.02;36265.94;4940924;28;45550;-89
2023/03/30 11:01:45;;;;;;;;;0.00;0.00;;;;;23.10;45.61;37810.06;4994470;28;46216;-88
2023/03/30 11:04:21;;;;;;;;;1.00;0.25;;;;;22.73;45.72;40384.28;5021408;28;45435;-87
2023/03/30 11:06:51;;;;;;;;;0.00;0.00;;;;;22.69;45.19;41620.81;5021469;28;45347;-92
2023/03/30 11:09:23;;;;;;;;;0.00;0.00;;;;;22.52;45.77;39853.25;5073331;23;45459;-85
2023/03/30 11:11:55;;;;;;;;;0.00;0.00;;;;;22.76;45.58;40394.47;5016201;28;45560;-85
2023/03/30 11:14:26;;;;;;;;;1.75;0.00;;;;;23.01;44.73;41927.22;5017963;28;45243;-87
2023/03/30 11:16:58;;;;;;;;;0.25;0.00;;;;;23.08;44.59;42977.41;5019129;28;45522;-88
2023/03/30 11:19:35;;;;;;;;;1.00;0.00;;;;;22.77;44.49;44975.16;5018613;28;45388;-87
2023/03/30 11:22:33;;;;;;;;;0.00;0.00;;;;;22.86;44.31;48111.03;5018276;28;45564;-86
2023/03/30 11:25:00;;;;;;;;;0.00;0.00;;;;;21.76;44.48;49423.44;5017512;28;45390;-87
2023/03/30 11:27:39;;;;;;;;;0.00;0.00;;;;;22.04;44.68;50591.66;5018120;28;45431;-85
2023/03/30 11:30:18;;;;;;;;;0.00;0.00;;;;;21.30;44.77;51387.56;5017460;28;45562;-85
2023/03/30 11:33:01;;;;;;;;;1.00;0.00;;;;;21.77;45.27;50946.03;5018219;28;47081;-86
2023/03/30 11:35:38;;;;;;;;;1.00;0.00;;;;;21.13;45.84;49868.44;5018058;28;45414;-85
2023/03/30 11:38:28;;;;;;;;;0.33;0.00;;;;;22.12;44.99;49601.53;5016464;28;45702;-85
2023/03/30 11:41:04;;;;;;;;;0.00;0.00;;;;;22.12;44.59;50347.16;5018379;28;45440;-88
2023/03/30 11:43:30;;;;;;;;;1.00;0.00;;;;;22.55;43.82;52324.16;5017075;28;47148;-86
2023/03/30 11:46:11;;;;;;;;;0.00;0.00;;;;;22.54;43.72;52846.66;5017501;28;45838;-86
2023/03/30 11:49:00;;;;;;;;;0.00;0.00;;;;;22.51;43.21;53627.72;5017656;28;45257;-87
2023/03/30 11:52:04;;;;;;;;;2.00;0.00;;;;;21.59;43.20;54352.94;5017591;28;45585;-86
2023/03/30 11:54:37;;;;;;;;;0.00;0.00;;;;;22.34;43.84;54414.91;5022304;28;46538;-86
2023/03/30 11:57:09;;;;;;;;;0.00;0.00;;;;;22.14;43.54;55431.97;5021163;28;45280;-85
2023/03/30 12:00:09;;;;;;;;;1.00;1.00;;;;;21.88;43.69;56169.50;5017079;28;45490;-86
2023/03/30 12:02:53;;;;;;;;;3.00;0.00;;;;;21.77;45.24;53817.03;5010553;28;45504;-85
2023/03/30 12:05:36;;;;;;;;;0.00;0.00;;;;;21.81;44.67;53777.88;4998960;28;48665;-83
2023/03/30 12:08:42;;;;;;;;;0.67;0.00;;;;;22.09;44.96;52754.72;4998869;28;45350;-87
2023/03/30 12:11:32;;;;;;;;;0.00;0.00;;;;;22.57;44.05;52725.47;5017306;28;45340;-85
2023/03/30 12:13:59;;;;;;;;;0.00;0.00;;;;;22.97;43.09;52001.25;5017392;28;45442;-86
2023/03/30 12:16:43;;;;;;;;;0.00;0.00;;;;;23.12;42.05;53882.19;5016599;28;45489;-86
2023/03/30 12:19:18;;;;;;;;;0.00;0.00;;;;;23.77;41.91;54753.81;5016732;28;45565;-86
2023/03/30 12:22:14;;;;;;;;;0.00;0.00;;;;;24.08;40.85;56786.28;5016407;28;45359;-87
2023/03/30 12:24:52;;;;;;;;;0.00;0.00;;;;;24.21;40.53;56720.47;5008416;28;45756;-87
2023/03/30 12:27:18;;;;;;;;;0.00;0.00;;;;;24.31;41.03;56384.94;5016552;28;46415;-88
2023/03/30 12:29:48;;;;;;;;;1.50;0.00;;;;;24.64;41.15;56370.91;4998811;28;45728;-87
2023/03/30 12:32:25;;;;;;;;;1.50;0.50;;;;;24.72;41.09;55990.53;5017104;28;45421;-86
2023/03/30 12:34:54;;;;;;;;;2.00;0.50;;;;;24.73;40.60;56743.19;5017622;28;45359;-86
2023/03/30 12:37:36;;;;;;;;;0.00;0.00;;;;;25.00;40.71;56887.94;5016364;28;47269;-86
2023/03/30 12:40:21;;;;;;;;;0.00;0.00;;;;;25.29;39.50;58230.56;5022252;23;45360;-86
2023/03/30 12:43:04;;;;;;;;;2.00;1.00;;;;;25.58;39.78;58396.50;4983517;28;45258;-90
2023/03/30 12:45:36;;;;;;;;;0.00;0.00;;;;;25.29;40.02;58673.31;4994479;28;45354;-95
2023/03/30 12:48:28;;;;;;;;;0.75;0.75;;;;;25.73;37.46;61579.25;5020215;22;46280;-91
2023/03/30 12:51:42;;;;;;;;;1.00;1.00;;;;;25.38;38.67;62210.66;4983861;28;45419;-90
2023/03/30 12:57:51;;;;;;;;;0.00;0.00;;;;;24.35;45.14;49855.44;4989946;28;45548;-87
2023/03/30 13:00:44;;;;;;;;;0.00;0.00;;;;;24.08;45.82;46499.31;4995240;28;46189;-88
2023/03/30 13:03:35;;;;;;;;;0.00;0.00;;;;;23.39;47.05;45371.41;4994986;28;45431;-87
2023/03/30 13:06:02;;;;;;;;;0.00;0.00;;;;;23.13;48.11;41869.50;4997231;28;45454;-88
2023/03/30 13:08:36;;;;;;;;;1.00;1.00;;;;;22.84;49.53;34835.44;5011894;28;45387;-89
2023/03/30 13:11:14;;;;;;;;;0.00;0.00;;;;;22.89;48.60;37039.16;4994838;28;46129;-89
2023/03/30 13:13:49;;;;;;;;;0.00;0.00;;;;;22.62;48.64;37770.41;4997813;28;45574;-87
2023/03/30 13:16:45;;;;;;;;;0.00;0.00;;;;;22.38;49.16;35814.25;4960107;28;45372;-86
2023/03/30 13:19:26;;;;;;;;;0.00;0.00;;;;;22.95;47.33;41577.97;4977835;28;45434;-87
2023/03/30 13:22:28;;;;;;;;;0.00;0.00;;;;;22.92;46.13;46037.56;4992145;28;46375;-86
2023/03/30 13:24:56;;;;;;;;;0.00;0.00;;;;;22.67;45.68;46516.31;4986156;28;45701;-89
2023/03/30 13:27:26;;;;;;;;;0.00;0.00;;;;;23.24;45.65;47379.63;4996965;28;45417;-87
2023/03/30 13:30:07;;;;;;;;;0.00;0.00;;;;;23.35;44.36;50065.59;4996966;28;45479;-86
2023/03/30 13:32:38;;;;;;;;;0.00;0.00;;;;;23.43;43.91;52321.56;4996767;28;45397;-88
2023/03/30 13:35:41;;;;;;;;;2.33;0.33;;;;;23.44;43.15;53943.50;4996667;28;45468;-89
2023/03/30 13:38:23;;;;;;;;;0.00;0.00;;;;;23.24;42.81;55358.16;4996908;28;45392;-90
2023/03/30 13:41:13;;;;;;;;;1.00;0.00;;;;;23.46;42.88;55827.59;4996976;28;45394;-89
2023/03/30 13:43:58;;;;;;;;;0.00;0.00;;;;;23.45;42.95;56273.69;4996173;28;47138;-86
2023/03/30 13:46:34;;;;;;;;;1.25;0.00;;;;;23.48;43.04;56241.16;4995758;28;45462;-87
2023/03/30 13:49:11;;;;;;;;;1.00;0.00;;;;;23.45;42.51;56620.31;4996525;28;45429;-84
2023/03/30 13:51:40;;;;;;;;;0.00;0.00;;;;;23.47;42.84;56953.72;4996993;28;45353;-87
2023/03/30 13:54:12;;;;;;;;;1.00;0.00;;;;;23.25;43.12;57348.97;4999809;28;47151;-88
2023/03/30 13:56:42;;;;;;;;;1.00;0.00;;;;;23.07;42.75;57622.06;5001426;28;45449;-87
2023/03/30 13:59:15;;;;;;;;;1.00;0.00;;;;;23.29;43.00;57573.59;5000326;28;45340;-88
2023/03/30 14:01:49;;;;;;;;;0.00;0.00;;;;;22.81;42.54;58150.47;5002229;28;45466;-88
2023/03/30 14:04:15;;;;;;;;;0.00;0.00;;;;;22.50;42.31;58956.69;5003280;28;46176;-91
2023/03/30 14:06:44;;;;;;;;;0.00;0.00;;;;;23.00;42.68;59056.88;5000272;28;45396;-92
2023/03/30 14:09:20;;;;;;;;;0.00;0.00;;;;;22.87;42.78;59396.44;5001718;28;45396;-93
2023/03/30 14:11:53;;;;;;;;;2.00;2.00;;;;;22.88;42.43;59718.13;5004652;28;45336;-93
2023/03/30 14:14:45;;;;;;;;;0.00;0.00;;;;;22.99;42.03;59712.34;4984594;28;47401;-94
2023/03/30 14:17:24;;;;;;;;;0.00;0.00;;;;;22.54;42.39;59735.13;5001212;28;45411;-95
2023/03/30 14:20:20;;;;;;;;;0.00;0.00;;;;;22.84;42.65;59767.81;5001278;28;45348;-96
2023/03/30 14:22:50;;;;;;;;;0.00;0.00;;;;;22.30;43.56;59509.22;5000258;28;45426;-91
2023/03/30 14:25:25;;;;;;;;;0.00;0.00;;;;;22.75;43.59;59589.56;5000889;28;46077;-94
2023/03/30 14:28:23;;;;;;;;;0.00;0.00;;;;;22.66;43.33;59757.75;4985833;28;45499;-90
2023/03/30 14:30:51;;;;;;;;;0.00;0.00;;;;;21.14;43.16;59896.66;4983724;28;45347;-93
2023/03/30 14:33:17;;;;;;;;;0.00;0.00;;;;;21.49;43.31;60238.00;4998714;28;45795;-91
2023/03/30 14:35:55;;;;;;;;;1.00;0.00;;;;;21.75;45.77;55765.09;4998491;28;46449;-87
2023/03/30 14:38:38;;;;;;;;;0.00;0.00;;;;;22.00;46.81;54913.97;4998257;28;45558;-86
2023/03/30 14:41:11;;;;;;;;;0.00;0.00;;;;;21.83;46.15;55356.97;4999085;28;45352;-87
2023/03/30 14:43:42;;;;;;;;;0.00;0.00;;;;;21.43;46.22;55692.16;4999018;28;45487;-87
2023/03/30 14:46:11;;;;;;;;;0.00;0.00;;;;;21.81;46.33;55462.38;4998790;28;45442;-85
2023/03/30 14:48:42;;;;;;;;;0.00;0.00;;;;;21.73;46.37;55808.75;4991396;28;45782;-88
2023/03/30 14:51:25;;;;;;;;;0.00;0.00;;;;;21.55;46.75;55990.75;4998880;28;45471;-88
2023/03/30 14:53:54;;;;;;;;;0.00;0.00;;;;;21.55;46.42;56285.81;4993338;28;45637;-91
2023/03/30 14:56:21;;;;;;;;;0.00;0.00;;;;;21.45;46.95;54965.25;4999050;28;47247;-88
2023/03/30 14:58:50;;;;;;;;;0.00;0.00;;;;;21.29;52.27;32413.91;4999651;28;45415;-87
2023/03/30 15:01:29;;;;;;;;;0.00;0.00;;;;;21.16;60.76;-13371.34;4998628;28;45481;-90
2023/03/30 15:04:02;;;;;;;;;0.00;0.00;;;;;20.98;63.61;-19767.34;4998622;28;45855;-92
2023/03/30 15:09:23;;;;;;;;;0.00;0.00;;;;;20.20;66.54;-19746.94;4999181;28;45549;-94
2023/03/30 15:11:51;;;;;;;;;1.00;0.00;;;;;19.60;65.41;-19731.47;4984406;28;45460;-94
2023/03/30 15:14:21;;;;;;;;;0.00;0.00;;;;;19.53;63.68;-19729.59;4989316;28;45441;-96
2023/03/30 15:16:52;;;;;;;;;0.00;0.00;;;;;19.48;62.00;-19728.13;5000999;28;47193;-92
2023/03/30 15:19:32;;;;;;;;;0.00;0.00;;;;;20.04;61.86;-19740.84;4999319;28;45427;-89
2023/03/30 15:22:06;;;;;;;;;0.67;0.00;;;;;19.91;60.53;-19065.81;5000053;28;45428;-87
2023/03/30 15:24:34;;;;;;;;;0.00;0.00;;;;;20.26;59.49;-18402.19;4999316;28;45391;-91
2023/03/30 15:27:05;;;;;;;;;1.00;0.50;;;;;20.00;60.21;-18396.06;4999447;28;47009;-94
2023/03/30 15:29:31;;;;;;;;;0.00;0.00;;;;;20.05;60.19;-18061.25;4999126;28;45416;-93
2023/03/30 15:32:04;;;;;;;;;0.00;0.00;;;;;20.11;59.02;-17390.50;4998834;28;45479;-92
2023/03/30 15:34:29;;;;;;;;;0.00;0.00;;;;;19.78;59.09;-17047.22;5018364;28;45588;-92
2023/03/30 15:36:55;;;;;;;;;0.67;0.00;;;;;19.82;59.48;-16712.06;5007891;28;46331;-93
2023/03/30 15:39:24;;;;;;;;;0.00;0.00;;;;;19.92;58.12;-16041.88;4998481;28;45447;-93
2023/03/30 15:42:03;;;;;;;;;0.00;0.00;;;;;20.13;58.46;-15709.75;4998426;28;45825;-92
2023/03/30 15:44:36;;;;;;;;;0.00;0.00;;;;;20.12;57.93;-15036.91;4998208;28;45246;-93
2023/03/30 15:47:05;;;;;;;;;0.00;0.00;;;;;20.03;57.50;-14362.72;4995285;28;45400;-92
2023/03/30 15:49:40;;;;;;;;;0.00;0.00;;;;;20.09;56.88;-14363.72;4978453;28;45652;-93
2023/03/30 15:52:18;;;;;;;;;0.00;0.00;;;;;19.91;56.88;-13687.94;4988809;28;45398;-92
2023/03/30 15:54:54;;;;;;;;;0.00;0.00;;;;;20.12;56.61;-13018.31;4993036;28;45485;-90
2023/03/30 15:57:23;;;;;;;;;0.00;0.00;;;;;20.06;55.64;-12007.84;4978518;28;46120;-89
2023/03/30 15:59:55;;;;;;;;;0.00;0.00;;;;;20.00;55.66;-10997.22;4980615;28;45567;-94
2023/03/30 16:02:23;;;;;;;;;0.00;0.00;;;;;19.73;53.98;-8637.75;4981475;28;45535;-93
2023/03/30 16:04:50;;;;;;;;;0.00;0.00;;;;;19.94;54.08;-7965.88;4977920;28;45511;-91
2023/03/30 16:07:21;;;;;;;;;0.00;0.00;;;;;19.66;54.63;-7963.78;4978292;28;47221;-89
2023/03/30 16:09:47;;;;;;;;;0.00;0.00;;;;;19.73;54.54;-8301.06;4973880;28;45481;-88
2023/03/30 16:12:22;;;;;;;;;0.67;0.00;;;;;19.92;54.10;-7628.84;4977617;28;45468;-88
2023/03/30 16:14:49;;;;;;;;;0.00;0.00;;;;;19.69;54.27;-6616.84;4977693;28;45353;-89
2023/03/30 16:17:14;;;;;;;;;0.00;0.00;;;;;19.50;53.42;-4931.69;4977321;28;47425;-87
2023/03/30 16:19:41;;;;;;;;;1.00;0.00;;;;;19.82;52.20;-3246.78;4975573;28;45606;-88
2023/03/30 16:22:07;;;;;;;;;0.00;0.00;;;;;19.67;52.27;-2909.63;4977966;28;45396;-92
2023/03/30 16:24:33;;;;;;;;;0.00;0.00;;;;;19.42;52.25;-1898.56;4978691;28;45485;-93
2023/03/30 16:26:58;;;;;;;;;1.00;0.00;;;;;19.39;52.14;-1898.63;4978133;28;45802;-92
2023/03/30 16:29:24;;;;;;;;;0.00;0.00;;;;;19.12;52.44;-1225.25;4977821;28;45451;-90
2023/03/30 16:31:50;;;;;;;;;0.00;0.00;;;;;18.98;52.58;-888.72;4977467;28;45596;-93
2023/03/30 16:34:16;;;;;;;;;0.00;0.00;;;;;19.21;52.26;-550.78;4970104;28;45608;-88
2023/03/30 16:36:53;;;;;;;;;0.00;0.00;;;;;19.72;52.04;-211.06;4976410;28;47102;-91
2023/03/30 16:39:26;;;;;;;;;0.00;0.00;;;;;19.68;51.52;1138.59;4977870;28;45601;-94
2023/03/30 16:41:53;;;;;;;;;0.00;0.00;;;;;19.64;52.34;-211.50;4979427;28;45425;-93
2023/03/30 16:44:21;;;;;;;;;0.00;0.00;;;;;19.29;52.50;124.00;4998223;28;45623;-94
2023/03/30 16:46:49;;;;;;;;;0.00;0.00;;;;;19.18;53.05;-887.97;4985587;28;45553;-93
2023/03/30 16:49:23;;;;;;;;;0.00;0.00;;;;;19.32;53.62;-887.44;5013010;28;45436;-95
2023/03/30 16:51:49;;;;;;;;;0.00;0.00;;;;;19.17;53.02;-550.91;5010129;28;45329;-95
2023/03/30 16:54:15;;;;;;;;;0.33;0.00;;;;;18.77;53.43;-215.78;5006392;28;45419;-96
2023/03/30 16:56:41;;;;;;;;;0.00;0.00;;;;;19.06;52.64;122.75;4997750;28;46576;-96
2023/03/30 16:59:24;;;;;;;;;0.00;0.00;;;;;19.37;53.10;461.75;4998657;28;45585;-95
2023/03/30 17:01:51;;;;;;;;;0.00;0.00;;;;;18.62;52.62;1131.06;4977297;28;45638;-94
2023/03/30 17:04:17;;;;;;;;;0.00;0.00;;;;;19.17;52.57;1134.97;4979887;28;46286;-94
2023/03/30 17:06:43;;;;;;;;;1.00;0.00;;;;;19.29;52.92;1135.84;5003476;28;46157;-93
2023/03/30 17:09:13;;;;;;;;;0.00;0.00;;;;;19.13;52.68;1471.97;5008297;28;45479;-93
2023/03/30 17:11:39;;;;;;;;;0.67;0.00;;;;;18.94;53.24;1133.34;5000638;28;45404;-93
2023/03/30 17:14:04;;;;;;;;;0.00;0.00;;;;;18.43;53.19;1129.72;4997433;28;45568;-94
2023/03/30 17:16:35;;;;;;;;;0.00;0.00;;;;;17.84;52.95;1125.59;5003026;28;45387;-95
2023/03/30 17:19:00;;;;;;;;;1.00;0.00;;;;;19.18;53.10;1472.38;5007721;28;45467;-95
2023/03/30 17:21:26;;;;;;;;;0.00;0.00;;;;;18.86;54.00;795.69;5010125;28;45361;-96
2023/03/30 17:23:51;;;;;;;;;0.67;0.67;;;;;18.74;53.57;457.97;4992070;28;45622;-91
2023/03/30 17:26:20;;;;;;;;;0.00;0.00;;;;;18.65;53.75;457.41;4993958;28;45666;-93
2023/03/30 17:28:46;;;;;;;;;0.00;0.00;;;;;19.00;53.98;122.41;4997762;28;45294;-91